createdAt,value
2019-04-22T00:02:09.540Z,22.40
2019-04-22T00:04:47.553Z,22.30
2019-04-22T00:07:31.994Z,22.40
2019-04-22T00:12:34.861Z,22.20
2019-04-22T00:14:57.051Z,22.30
2019-04-22T00:17:40.145Z,22.30
2019-04-22T00:20:04.745Z,22.20
2019-04-22T00:22:32.062Z,22.20
2019-04-22T00:25:09.589Z,22.10
2019-04-22T00:27:42.843Z,22.10
2019-04-22T00:30:07.908Z,22.00
2019-04-22T00:32:30.338Z,22.10
2019-04-22T00:35:07.032Z,22.00
2019-04-22T00:37:37.885Z,22.00
2019-04-22T00:40:10.359Z,22.00
2019-04-22T00:45:06.371Z,22.10
2019-04-22T00:52:37.154Z,21.80
2019-04-22T00:57:32.352Z,21.80
2019-04-22T01:00:05.513Z,21.80
2019-04-22T01:02:41.856Z,21.70
2019-04-22T01:05:09.316Z,21.70
2019-04-22T01:07:37.157Z,21.60
2019-04-22T01:10:11.597Z,21.80
2019-04-22T01:12:42.682Z,21.80
2019-04-22T01:15:10.660Z,21.80
2019-04-22T01:17:40.297Z,21.70
2019-04-22T01:20:25.764Z,21.70
2019-04-22T01:22:33.048Z,21.70
2019-04-22T01:25:04.492Z,21.60
2019-04-22T01:27:32.411Z,21.70
2019-04-22T01:29:59.725Z,21.60
2019-04-22T01:32:22.913Z,21.60
2019-04-22T01:34:57.586Z,21.70
2019-04-22T01:37:36.030Z,21.70
2019-04-22T01:40:11.371Z,21.70
2019-04-22T01:42:50.451Z,21.70
2019-04-22T01:45:14.062Z,21.60
2019-04-22T01:47:43.806Z,21.70
2019-04-22T01:50:12.281Z,21.70
2019-04-22T01:52:47.320Z,21.70
2019-04-22T01:55:17.500Z,21.60
2019-04-22T01:57:43.296Z,21.70
2019-04-22T02:00:09.779Z,21.60
2019-04-22T02:02:41.788Z,21.60
2019-04-22T02:05:16.070Z,21.60
2019-04-22T02:07:42.430Z,21.60
2019-04-22T02:10:11.159Z,21.60
2019-04-22T02:12:48.438Z,21.60
2019-04-22T02:15:16.688Z,21.60
2019-04-22T02:17:50.295Z,21.60
2019-04-22T02:20:16.842Z,21.60
2019-04-22T02:23:36.987Z,21.60
2019-04-22T02:25:51.042Z,21.50
2019-04-22T02:28:28.362Z,21.60
2019-04-22T02:31:05.007Z,21.50
2019-04-22T02:33:45.943Z,21.60
2019-04-22T02:36:09.033Z,21.50
2019-04-22T02:38:34.851Z,21.50
2019-04-22T02:41:13.190Z,21.50
2019-04-22T02:43:23.826Z,21.50
2019-04-22T02:46:03.037Z,21.50
2019-04-22T02:48:40.146Z,21.50
2019-04-22T02:50:58.246Z,21.40
2019-04-22T02:53:30.073Z,21.40
2019-04-22T02:58:34.152Z,21.40
2019-04-22T03:01:01.486Z,21.40
2019-04-22T03:13:30.205Z,21.30
2019-04-22T03:16:01.210Z,21.40
2019-04-22T03:18:35.462Z,21.30
2019-04-22T03:28:33.043Z,21.40
2019-04-22T03:31:26.153Z,21.40
2019-04-22T03:33:51.743Z,21.40
2019-04-22T03:36:05.033Z,21.50
2019-04-22T03:38:41.171Z,21.50
2019-04-22T03:41:03.253Z,21.40
2019-04-22T03:43:38.073Z,21.40
2019-04-22T03:45:58.808Z,21.40
2019-04-22T03:48:27.106Z,21.40
2019-04-22T03:51:09.254Z,21.40
2019-04-22T03:56:02.443Z,21.50
2019-04-22T03:58:32.239Z,21.50
2019-04-22T04:01:21.914Z,21.50
2019-04-22T04:03:33.839Z,21.50
2019-04-22T04:08:39.142Z,21.50
2019-04-22T04:13:33.756Z,21.40
2019-04-22T04:15:55.758Z,21.40
2019-04-22T04:18:39.580Z,21.40
2019-04-22T04:21:12.800Z,21.30
2019-04-22T04:23:37.821Z,21.30
2019-04-22T04:26:00.905Z,21.30
2019-04-22T04:31:09.532Z,21.30
2019-04-22T04:33:51.810Z,21.30
2019-04-22T04:36:02.465Z,21.20
2019-04-22T04:38:43.459Z,21.20
2019-04-22T04:41:10.858Z,21.20
2019-04-22T04:43:35.396Z,21.20
2019-04-22T04:46:06.792Z,21.20
2019-04-22T04:48:42.572Z,21.20
2019-04-22T04:51:30.573Z,21.20
2019-04-22T04:56:11.619Z,21.10
2019-04-22T04:58:46.947Z,21.10
2019-04-22T05:01:05.624Z,20.90
2019-04-22T05:06:05.550Z,20.90
2019-04-22T05:08:52.536Z,20.80
2019-04-22T05:13:39.513Z,20.80
2019-04-22T05:16:17.705Z,20.80
2019-04-22T05:18:39.570Z,20.80
2019-04-22T05:23:38.322Z,20.80
2019-04-22T05:26:05.855Z,20.80
2019-04-22T05:28:30.251Z,20.80
2019-04-22T05:31:05.046Z,20.80
2019-04-22T05:33:33.211Z,20.80
2019-04-22T05:36:06.096Z,20.80
2019-04-22T05:38:39.956Z,20.90
2019-04-22T05:41:02.607Z,20.90
2019-04-22T05:43:38.547Z,20.90
2019-04-22T05:46:03.001Z,20.90
2019-04-22T05:48:33.133Z,20.90
2019-04-22T05:51:01.124Z,21.00
2019-04-22T05:53:37.256Z,21.00
2019-04-22T05:56:04.194Z,21.10
2019-04-22T05:58:39.062Z,21.10
2019-04-22T06:01:36.534Z,21.20
2019-04-22T06:03:42.575Z,21.20
2019-04-22T06:06:12.675Z,21.20
2019-04-22T06:08:40.173Z,21.10
2019-04-22T06:11:09.416Z,21.20
2019-04-22T06:13:33.063Z,21.20
2019-04-22T06:16:01.923Z,21.30
2019-04-22T06:18:33.459Z,21.30
2019-04-22T06:23:42.451Z,21.20
2019-04-22T06:26:21.965Z,21.20
2019-04-22T06:28:40.662Z,21.20
2019-04-22T06:31:11.085Z,21.10
2019-04-22T06:33:43.511Z,21.00
2019-04-22T06:36:08.603Z,21.20
2019-04-22T06:38:40.318Z,21.20
2019-04-22T06:43:43.302Z,21.40
2019-04-22T06:46:08.475Z,21.50
2019-04-22T06:48:35.696Z,21.60
2019-04-22T06:51:09.432Z,21.70
2019-04-22T06:53:43.847Z,21.70
2019-04-22T06:56:14.264Z,21.80
2019-04-22T06:58:39.704Z,21.90
2019-04-22T07:01:17.869Z,22.00
2019-04-22T07:06:17.555Z,22.00
2019-04-22T07:08:59.611Z,22.00
2019-04-22T07:11:05.752Z,22.00
2019-04-22T07:16:13.209Z,22.30
2019-04-22T07:18:45.008Z,22.20
2019-04-22T07:21:10.417Z,22.20
2019-04-22T07:28:37.789Z,22.40
2019-04-22T07:33:48.808Z,22.60
2019-04-22T07:36:41.800Z,22.60
2019-04-22T07:38:40.969Z,22.70
2019-04-22T07:41:17.274Z,22.70
2019-04-22T07:43:59.621Z,22.60
2019-04-22T07:46:16.444Z,22.80
2019-04-22T07:48:56.559Z,22.90
2019-04-22T07:53:48.499Z,23.20
2019-04-22T07:56:21.505Z,23.20
2019-04-22T07:58:48.545Z,23.30
2019-04-22T08:01:20.495Z,23.50
2019-04-22T08:04:12.485Z,23.60
2019-04-22T08:06:17.320Z,23.60
2019-04-22T08:08:45.474Z,23.80
2019-04-22T08:11:43.733Z,23.80
2019-04-22T08:13:47.389Z,23.90
2019-04-22T08:16:18.390Z,24.00
2019-04-22T08:18:45.666Z,24.00
2019-04-22T08:21:19.997Z,24.00
2019-04-22T08:23:50.918Z,24.00
2019-04-22T08:26:19.569Z,24.10
2019-04-22T08:28:53.387Z,24.10
2019-04-22T08:31:20.591Z,24.30
2019-04-22T08:34:12.045Z,24.50
2019-04-22T08:38:54.002Z,24.90
2019-04-22T08:51:29.511Z,25.70
2019-04-22T08:54:06.100Z,25.90
2019-04-22T08:59:06.990Z,26.30
2019-04-22T09:01:27.080Z,26.40
2019-04-22T09:06:47.440Z,26.90
2019-04-22T09:09:04.720Z,27.40
2019-04-22T09:11:35.912Z,27.80
2019-04-22T09:14:01.652Z,28.40
2019-04-22T09:16:33.328Z,28.80
2019-04-22T09:19:02.578Z,29.10
2019-04-22T09:21:49.993Z,29.40
2019-04-22T09:24:03.936Z,29.50
2019-04-22T09:29:05.197Z,30.10
2019-04-22T09:31:30.458Z,30.20
2019-04-22T09:33:59.064Z,30.20
2019-04-22T09:36:50.482Z,30.10
2019-04-22T09:39:01.609Z,30.00
2019-04-22T09:41:40.104Z,29.90
2019-04-22T09:44:04.379Z,29.70
2019-04-22T09:49:12.310Z,29.90
2019-04-22T09:51:37.514Z,30.00
2019-04-22T09:54:13.933Z,30.00
2019-04-22T09:56:45.196Z,30.00
2019-04-22T09:59:07.702Z,30.00
2019-04-22T10:04:27.294Z,29.90
2019-04-22T10:06:39.425Z,30.00
2019-04-22T10:11:46.237Z,29.80
2019-04-22T10:14:17.047Z,29.70
2019-04-22T10:16:46.442Z,29.80
2019-04-22T10:19:31.645Z,29.70
2019-04-22T10:24:13.712Z,29.80
2019-04-22T10:26:44.133Z,29.80
2019-04-22T10:29:20.344Z,29.80
2019-04-22T10:31:43.311Z,30.10
2019-04-22T10:34:03.905Z,30.10
2019-04-22T10:36:21.477Z,30.10
2019-04-22T10:38:50.659Z,30.10
2019-04-22T10:41:20.579Z,30.10
2019-04-22T10:43:49.175Z,30.30
2019-04-22T10:46:18.077Z,30.60
2019-04-22T10:48:46.648Z,30.90
2019-04-22T10:51:16.811Z,31.10
2019-04-22T10:53:47.213Z,31.30
2019-04-22T10:56:19.040Z,31.50
2019-04-22T10:58:48.823Z,31.20
2019-04-22T11:01:19.058Z,31.20
2019-04-22T11:03:49.068Z,31.40
2019-04-22T11:06:19.120Z,31.60
2019-04-22T11:08:52.785Z,31.80
2019-04-22T11:11:31.429Z,32.40
2019-04-22T11:13:49.549Z,32.90
2019-04-22T11:16:19.384Z,33.40
2019-04-22T11:18:49.424Z,33.80
2019-04-22T11:21:19.821Z,34.20
2019-04-22T11:23:50.421Z,34.60
2019-04-22T11:26:19.891Z,35.00
2019-04-22T11:28:49.657Z,35.50
2019-04-22T11:31:18.710Z,35.60
2019-04-22T11:33:48.384Z,35.70
2019-04-22T11:36:17.751Z,35.40
2019-04-22T11:38:55.232Z,35.70
2019-04-22T11:41:16.817Z,36.00
2019-04-22T11:43:45.551Z,36.40
2019-04-22T11:46:15.540Z,36.90
2019-04-22T11:48:45.497Z,37.20
2019-04-22T11:51:15.803Z,37.30
2019-04-22T11:53:45.083Z,37.40
2019-04-22T11:56:16.622Z,37.40
2019-04-22T11:58:46.614Z,37.20
2019-04-22T12:01:19.012Z,37.40
2019-04-22T12:03:47.783Z,37.20
2019-04-22T12:06:17.794Z,37.20
2019-04-22T12:08:47.776Z,37.40
2019-04-22T12:11:18.898Z,37.70
2019-04-22T12:13:48.198Z,37.80
2019-04-22T12:16:17.220Z,37.50
2019-04-22T12:18:47.317Z,37.50
2019-04-22T12:21:19.443Z,37.50
2019-04-22T12:23:48.707Z,37.60
2019-04-22T12:26:20.533Z,37.80
2019-04-22T12:28:49.033Z,37.90
2019-04-22T12:31:17.807Z,38.00
2019-04-22T12:33:47.656Z,38.30
2019-04-22T12:36:16.469Z,38.30
2019-04-22T12:38:47.519Z,37.90
2019-04-22T12:41:19.737Z,37.10
2019-04-22T12:43:49.252Z,36.30
2019-04-22T12:46:18.531Z,35.50
2019-04-22T12:48:47.125Z,34.90
2019-04-22T12:51:15.664Z,34.20
2019-04-22T12:53:46.097Z,33.70
2019-04-22T12:56:15.440Z,33.20
2019-04-22T12:58:45.568Z,32.70
2019-04-22T13:01:15.157Z,32.40
2019-04-22T13:03:44.659Z,31.90
2019-04-22T13:06:14.262Z,31.80
2019-04-22T13:08:43.555Z,31.60
2019-04-22T13:11:16.556Z,31.30
2019-04-22T13:13:42.890Z,31.00
2019-04-22T13:16:13.235Z,30.90
2019-04-22T13:18:49.261Z,30.60
2019-04-22T13:21:12.924Z,30.60
2019-04-22T13:23:41.719Z,30.50
2019-04-22T13:26:10.688Z,30.40
2019-04-22T13:28:39.343Z,30.30
2019-04-22T13:31:07.867Z,30.30
2019-04-22T13:33:36.982Z,30.40
2019-04-22T13:36:05.976Z,30.40
2019-04-22T13:38:35.353Z,30.10
2019-04-22T13:41:18.508Z,30.10
2019-04-22T13:43:34.703Z,30.00
2019-04-22T13:46:03.879Z,29.80
2019-04-22T13:48:52.650Z,29.60
2019-04-22T13:51:40.998Z,29.60
2019-04-22T13:54:37.228Z,29.70
2019-04-22T13:56:35.716Z,29.80
2019-04-22T13:58:54.066Z,29.70
2019-04-22T14:01:12.677Z,29.80
2019-04-22T14:03:48.936Z,29.90
2019-04-22T14:06:18.645Z,29.80
2019-04-22T14:08:47.272Z,29.90
2019-04-22T14:11:28.718Z,30.20
2019-04-22T14:13:46.188Z,30.10
2019-04-22T14:16:15.298Z,30.10
2019-04-22T14:18:45.940Z,30.20
2019-04-22T14:21:14.965Z,29.90
2019-04-22T14:23:44.744Z,29.90
2019-04-22T14:26:13.459Z,29.90
2019-04-22T14:28:43.738Z,29.90
2019-04-22T14:31:12.756Z,30.00
2019-04-22T14:33:46.287Z,30.10
2019-04-22T14:36:11.632Z,30.00
2019-04-22T14:38:41.837Z,30.30
2019-04-22T14:41:30.530Z,30.60
2019-04-22T14:44:46.879Z,31.20
2019-04-22T14:46:38.911Z,31.90
2019-04-22T14:49:02.901Z,32.60
2019-04-22T14:51:32.969Z,33.20
2019-04-22T14:54:08.577Z,33.70
2019-04-22T14:56:16.107Z,34.20
2019-04-22T14:58:44.876Z,34.70
2019-04-22T15:01:14.747Z,34.80
2019-04-22T15:03:44.820Z,35.00
2019-04-22T15:06:13.551Z,35.40
2019-04-22T15:08:42.711Z,35.90
2019-04-22T15:11:13.066Z,36.10
2019-04-22T15:13:43.307Z,36.20
2019-04-22T15:16:20.130Z,36.00
2019-04-22T15:18:51.550Z,35.90
2019-04-22T15:21:22.803Z,36.00
2019-04-22T15:23:52.768Z,36.20
2019-04-22T15:26:22.326Z,36.50
2019-04-22T15:28:55.914Z,36.70
2019-04-22T15:31:21.910Z,36.80
2019-04-22T15:33:50.420Z,36.50
2019-04-22T15:36:20.031Z,36.20
2019-04-22T15:38:49.176Z,36.20
2019-04-22T15:41:18.796Z,36.10
2019-04-22T15:43:47.747Z,35.90
2019-04-22T15:46:16.343Z,35.90
2019-04-22T15:48:48.351Z,35.50
2019-04-22T15:51:20.711Z,35.30
2019-04-22T15:53:49.588Z,35.30
2019-04-22T15:56:18.770Z,35.20
2019-04-22T15:58:47.982Z,35.10
2019-04-22T16:01:25.926Z,35.10
2019-04-22T16:03:48.301Z,35.30
2019-04-22T16:06:19.962Z,35.10
2019-04-22T16:08:49.745Z,34.70
2019-04-22T16:11:19.923Z,34.40
2019-04-22T16:13:48.525Z,34.20
2019-04-22T16:16:18.577Z,34.10
2019-04-22T16:18:48.586Z,33.90
2019-04-22T16:21:30.261Z,33.70
2019-04-22T16:24:07.334Z,33.30
2019-04-22T16:26:40.371Z,33.20
2019-04-22T16:29:11.648Z,32.90
2019-04-22T16:31:40.268Z,32.90
2019-04-22T16:34:11.273Z,32.70
2019-04-22T16:36:40.746Z,32.60
2019-04-22T16:39:11.015Z,32.40
2019-04-22T16:41:39.768Z,32.20
2019-04-22T16:44:08.919Z,32.00
2019-04-22T16:46:37.687Z,31.70
2019-04-22T16:49:07.467Z,31.60
2019-04-22T16:51:36.209Z,31.40
2019-04-22T16:54:06.352Z,31.30
2019-04-22T16:56:36.832Z,31.00
2019-04-22T16:59:06.524Z,30.80
2019-04-22T17:01:43.173Z,30.40
2019-04-22T17:04:25.017Z,30.20
2019-04-22T17:06:55.416Z,30.10
2019-04-22T17:09:25.635Z,30.00
2019-04-22T17:11:54.180Z,29.70
2019-04-22T17:14:27.251Z,29.50
2019-04-22T17:16:52.868Z,29.40
2019-04-22T17:19:21.691Z,29.30
2019-04-22T17:21:50.187Z,29.30
2019-04-22T17:24:19.513Z,29.20
2019-04-22T17:26:48.490Z,29.20
2019-04-22T17:29:18.572Z,29.00
2019-04-22T17:31:50.911Z,29.10
2019-04-22T17:34:17.838Z,29.10
2019-04-22T17:36:46.450Z,29.10
2019-04-22T17:39:30.243Z,28.90
2019-04-22T17:42:01.970Z,28.80
2019-04-22T17:44:43.938Z,29.00
2019-04-22T17:47:23.624Z,28.70
2019-04-22T17:50:02.776Z,28.50
2019-04-22T17:52:33.371Z,28.50
2019-04-22T17:54:51.560Z,28.40
2019-04-22T17:57:31.241Z,28.30
2019-04-22T17:59:54.785Z,28.40
2019-04-22T18:02:28.081Z,28.50
2019-04-22T18:04:49.615Z,28.50
2019-04-22T18:07:35.556Z,28.20
2019-04-22T18:12:37.674Z,28.10
2019-04-22T18:15:04.347Z,28.10
2019-04-22T18:17:38.632Z,28.10
2019-04-22T18:20:01.344Z,28.00
2019-04-22T18:22:24.430Z,28.00
2019-04-22T18:24:58.451Z,28.00
2019-04-22T18:27:45.707Z,28.00
2019-04-22T18:30:01.589Z,27.90
2019-04-22T18:32:24.085Z,28.00
2019-04-22T18:34:52.935Z,27.90
2019-04-22T18:37:36.067Z,27.90
2019-04-22T18:40:03.313Z,27.80
2019-04-22T18:42:26.963Z,27.70
2019-04-22T18:45:21.689Z,27.80
2019-04-22T18:47:29.444Z,27.70
2019-04-22T18:49:59.476Z,27.70
2019-04-22T18:52:53.078Z,27.60
2019-04-22T18:55:26.723Z,27.40
2019-04-22T18:58:02.704Z,27.30
2019-04-22T19:00:23.062Z,27.30
2019-04-22T19:02:59.372Z,27.20
2019-04-22T19:05:34.658Z,27.20
2019-04-22T19:08:18.743Z,27.20
2019-04-22T19:10:55.742Z,27.20
2019-04-22T19:13:49.000Z,27.00
2019-04-22T19:15:43.236Z,27.00
2019-04-22T19:18:19.146Z,27.00
2019-04-22T19:20:51.855Z,26.90
2019-04-22T19:23:20.859Z,26.90
2019-04-22T19:25:43.765Z,26.80
2019-04-22T19:28:23.934Z,26.80
2019-04-22T19:30:47.909Z,26.70
2019-04-22T19:33:19.026Z,26.60
2019-04-22T19:35:40.067Z,26.60
2019-04-22T19:38:10.985Z,26.60
2019-04-22T19:40:55.384Z,26.50
2019-04-22T19:43:15.440Z,26.40
2019-04-22T19:45:48.917Z,26.50
2019-04-22T19:48:30.987Z,26.40
2019-04-22T19:50:52.717Z,26.30
2019-04-22T19:53:37.209Z,26.30
2019-04-22T19:55:47.047Z,26.30
2019-04-22T19:58:17.684Z,26.20
2019-04-22T20:00:49.270Z,26.20
2019-04-22T20:03:50.889Z,26.20
2019-04-22T20:06:22.099Z,26.10
2019-04-22T20:08:59.320Z,26.00
2019-04-22T20:11:31.639Z,25.90
2019-04-22T20:13:56.807Z,25.80
2019-04-22T20:16:25.247Z,25.80
2019-04-22T20:19:01.490Z,25.60
2019-04-22T20:21:33.396Z,25.50
2019-04-22T20:23:49.428Z,25.60
2019-04-22T20:26:22.712Z,25.50
2019-04-22T20:28:58.980Z,25.50
2019-04-22T20:31:30.080Z,25.50
2019-04-22T20:34:03.297Z,25.40
2019-04-22T20:36:53.492Z,25.40
2019-04-22T20:38:59.537Z,25.40
2019-04-22T20:41:26.529Z,25.20
2019-04-22T20:44:05.142Z,25.20
2019-04-22T20:46:31.625Z,25.20
2019-04-22T20:49:00.164Z,25.10
2019-04-22T20:51:45.831Z,25.20
2019-04-22T20:54:09.047Z,25.10
2019-04-22T20:56:31.227Z,25.10
2019-04-22T20:59:06.903Z,25.00
2019-04-22T21:01:33.502Z,25.20
2019-04-22T21:03:50.606Z,25.10
2019-04-22T21:06:32.292Z,25.10
2019-04-22T21:09:08.930Z,25.00
2019-04-22T21:11:30.124Z,24.90
2019-04-22T21:14:01.725Z,25.00
2019-04-22T21:16:39.863Z,24.90
2019-04-22T21:19:02.727Z,24.80
2019-04-22T21:21:37.692Z,24.90
2019-04-22T21:23:56.917Z,24.80
2019-04-22T21:26:33.571Z,24.80
2019-04-22T21:29:02.862Z,24.80
2019-04-22T21:31:51.303Z,24.70
2019-04-22T21:34:02.174Z,24.60
2019-04-22T21:36:35.373Z,24.60
2019-04-22T21:39:03.778Z,24.50
2019-04-22T21:41:37.587Z,24.50
2019-04-22T21:44:06.035Z,24.50
2019-04-22T21:46:44.318Z,24.40
2019-04-22T21:49:16.591Z,24.30
2019-04-22T21:51:43.173Z,24.20
2019-04-22T21:54:09.669Z,24.30
2019-04-22T21:56:55.172Z,24.30
2019-04-22T21:59:15.565Z,24.30
2019-04-22T22:04:18.910Z,24.20
2019-04-22T22:06:39.250Z,24.10
2019-04-22T22:09:19.463Z,24.10
2019-04-22T22:11:44.503Z,23.90
2019-04-22T22:14:16.983Z,24.00
2019-04-22T22:16:38.662Z,23.90
2019-04-22T22:19:17.219Z,23.90
2019-04-22T22:21:51.183Z,23.80
2019-04-22T22:24:35.868Z,23.80
2019-04-22T22:26:50.467Z,23.70
2019-04-22T22:29:32.226Z,23.80
2019-04-22T22:31:55.568Z,23.60
2019-04-22T22:34:19.095Z,23.60
2019-04-22T22:36:40.371Z,23.50
2019-04-22T22:39:08.708Z,23.40
2019-04-22T22:41:27.926Z,23.50
2019-04-22T22:44:03.413Z,23.50
2019-04-22T22:46:39.034Z,23.50
2019-04-22T22:49:23.650Z,23.40
2019-04-22T22:54:21.518Z,23.30
2019-04-22T22:56:55.543Z,23.30
2019-04-22T22:59:17.895Z,23.20
2019-04-22T23:02:00.235Z,23.20
2019-04-22T23:04:23.099Z,23.20
2019-04-22T23:06:49.997Z,23.20
2019-04-22T23:09:22.491Z,23.10
2019-04-22T23:12:06.722Z,23.00
2019-04-22T23:14:20.530Z,23.00
2019-04-22T23:16:39.765Z,23.00
2019-04-22T23:19:06.375Z,22.90
2019-04-22T23:21:39.709Z,22.90
2019-04-22T23:24:22.701Z,22.80
2019-04-22T23:27:01.531Z,22.80
2019-04-22T23:29:25.340Z,22.70
2019-04-22T23:31:59.649Z,22.60
2019-04-22T23:34:32.485Z,22.70
2019-04-22T23:37:12.245Z,22.60
2019-04-22T23:39:48.399Z,22.60
2019-04-22T23:42:19.463Z,22.60
2019-04-22T23:44:43.365Z,22.60
2019-04-22T23:47:16.016Z,22.60
2019-04-22T23:49:53.458Z,22.50
2019-04-22T23:52:27.130Z,22.50
2019-04-22T23:54:57.121Z,22.40
2019-04-22T23:57:31.363Z,22.40
